sensor_id;sensor_type;location;lat;lon;timestamp;temperature;humidity
67163;DHT22;54092;53.088;8.850;2024-02-23T00:00:41;9.60;99.90
67163;DHT22;54092;53.088;8.850;2024-02-23T00:03:07;9.50;99.90
67163;DHT22;54092;53.088;8.850;2024-02-23T00:05:33;9.40;99.90
67163;DHT22;54092;53.088;8.850;2024-02-23T00:07:59;8.90;99.90
67163;DHT22;54092;53.088;8.850;2024-02-23T00:10:24;8.10;99.90
67163;DHT22;54092;53.088;8.850;2024-02-23T00:12:51;7.80;99.90
67163;DHT22;54092;53.088;8.850;2024-02-23T00:15:16;7.50;99.90
67163;DHT22;54092;53.088;8.850;2024-02-23T00:17:42;7.30;99.90
67163;DHT22;54092;53.088;8.850;2024-02-23T00:20:09;7.00;99.90
67163;DHT22;54092;53.088;8.850;2024-02-23T00:22:37;6.90;99.90
67163;DHT22;54092;53.088;8.850;2024-02-23T00:25:02;6.80;99.90
67163;DHT22;54092;53.088;8.850;2024-02-23T00:27:28;6.70;99.90
67163;DHT22;54092;53.088;8.850;2024-02-23T00:29:53;6.70;99.90
67163;DHT22;54092;53.088;8.850;2024-02-23T00:32:19;6.80;99.90
67163;DHT22;54092;53.088;8.850;2024-02-23T00:34:44;6.90;99.90
67163;DHT22;54092;53.088;8.850;2024-02-23T00:37:10;6.90;99.90
67163;DHT22;54092;53.088;8.850;2024-02-23T00:39:35;6.90;99.90
67163;DHT22;54092;53.088;8.850;2024-02-23T00:42:01;7.00;99.90
67163;DHT22;54092;53.088;8.850;2024-02-23T00:44:27;7.10;99.90
67163;DHT22;54092;53.088;8.850;2024-02-23T00:46:53;7.00;99.90
67163;DHT22;54092;53.088;8.850;2024-02-23T00:49:18;7.10;99.90
67163;DHT22;54092;53.088;8.850;2024-02-23T00:51:44;7.10;99.90
67163;DHT22;54092;53.088;8.850;2024-02-23T00:54:09;7.10;99.90
67163;DHT22;54092;53.088;8.850;2024-02-23T00:56:34;7.20;99.90
67163;DHT22;54092;53.088;8.850;2024-02-23T00:59:00;7.20;99.90
67163;DHT22;54092;53.088;8.850;2024-02-23T01:01:26;7.20;99.90
67163;DHT22;54092;53.088;8.850;2024-02-23T01:03:55;7.30;99.90
67163;DHT22;54092;53.088;8.850;2024-02-23T01:06:20;7.20;99.90
67163;DHT22;54092;53.088;8.850;2024-02-23T01:08:45;7.20;99.90
67163;DHT22;54092;53.088;8.850;2024-02-23T01:11:11;7.20;99.90
67163;DHT22;54092;53.088;8.850;2024-02-23T01:13:36;7.20;99.90
67163;DHT22;54092;53.088;8.850;2024-02-23T01:16:02;7.20;99.90
67163;DHT22;54092;53.088;8.850;2024-02-23T01:18:28;7.10;99.90
67163;DHT22;54092;53.088;8.850;2024-02-23T01:20:54;7.00;99.90
67163;DHT22;54092;53.088;8.850;2024-02-23T01:23:21;7.00;99.90
67163;DHT22;54092;53.088;8.850;2024-02-23T01:25:46;6.90;99.90
67163;DHT22;54092;53.088;8.850;2024-02-23T01:28:12;6.80;99.90
67163;DHT22;54092;53.088;8.850;2024-02-23T01:30:37;6.70;99.90
67163;DHT22;54092;53.088;8.850;2024-02-23T01:33:03;6.60;99.90
67163;DHT22;54092;53.088;8.850;2024-02-23T01:35:28;6.40;99.90
67163;DHT22;54092;53.088;8.850;2024-02-23T01:37:55;6.40;99.90
67163;DHT22;54092;53.088;8.850;2024-02-23T01:40:20;6.20;99.90
67163;DHT22;54092;53.088;8.850;2024-02-23T01:42:46;6.20;99.90
67163;DHT22;54092;53.088;8.850;2024-02-23T01:45:11;6.20;99.90
67163;DHT22;54092;53.088;8.850;2024-02-23T01:47:37;6.20;99.90
67163;DHT22;54092;53.088;8.850;2024-02-23T01:50:03;6.20;99.90
67163;DHT22;54092;53.088;8.850;2024-02-23T01:52:29;6.30;99.90
67163;DHT22;54092;53.088;8.850;2024-02-23T01:54:55;6.30;99.90
67163;DHT22;54092;53.088;8.850;2024-02-23T01:57:21;6.30;99.90
67163;DHT22;54092;53.088;8.850;2024-02-23T01:59:48;6.30;99.90
67163;DHT22;54092;53.088;8.850;2024-02-23T02:02:15;6.30;99.90
67163;DHT22;54092;53.088;8.850;2024-02-23T02:04:41;6.30;99.90
67163;DHT22;54092;53.088;8.850;2024-02-23T02:07:07;6.30;99.90
67163;DHT22;54092;53.088;8.850;2024-02-23T02:09:32;6.20;99.90
67163;DHT22;54092;53.088;8.850;2024-02-23T02:11:58;6.20;99.90
67163;DHT22;54092;53.088;8.850;2024-02-23T02:14:23;6.10;99.90
67163;DHT22;54092;53.088;8.850;2024-02-23T02:16:49;6.00;99.90
67163;DHT22;54092;53.088;8.850;2024-02-23T02:19:14;6.00;99.90
67163;DHT22;54092;53.088;8.850;2024-02-23T02:21:41;5.90;99.90
67163;DHT22;54092;53.088;8.850;2024-02-23T02:24:07;5.80;99.90
67163;DHT22;54092;53.088;8.850;2024-02-23T02:26:34;5.80;99.90
67163;DHT22;54092;53.088;8.850;2024-02-23T02:29:00;5.70;99.90
67163;DHT22;54092;53.088;8.850;2024-02-23T02:31:25;5.60;99.90
67163;DHT22;54092;53.088;8.850;2024-02-23T02:33:50;5.60;99.90
67163;DHT22;54092;53.088;8.850;2024-02-23T02:36:16;5.60;99.90
67163;DHT22;54092;53.088;8.850;2024-02-23T02:38:41;5.50;99.90
67163;DHT22;54092;53.088;8.850;2024-02-23T02:41:08;5.50;99.90
67163;DHT22;54092;53.088;8.850;2024-02-23T02:43:33;5.50;99.90
67163;DHT22;54092;53.088;8.850;2024-02-23T02:45:59;5.50;99.90
67163;DHT22;54092;53.088;8.850;2024-02-23T02:48:24;5.40;99.90
67163;DHT22;54092;53.088;8.850;2024-02-23T02:50:50;5.40;99.90
67163;DHT22;54092;53.088;8.850;2024-02-23T02:53:16;5.40;99.90
67163;DHT22;54092;53.088;8.850;2024-02-23T02:55:42;5.50;99.90
67163;DHT22;54092;53.088;8.850;2024-02-23T02:58:08;5.50;99.90
67163;DHT22;54092;53.088;8.850;2024-02-23T03:00:34;5.50;99.90
67163;DHT22;54092;53.088;8.850;2024-02-23T03:03:00;5.50;99.90
67163;DHT22;54092;53.088;8.850;2024-02-23T03:05:25;5.50;99.90
67163;DHT22;54092;53.088;8.850;2024-02-23T03:07:51;5.60;99.90
67163;DHT22;54092;53.088;8.850;2024-02-23T03:10:16;5.50;99.90
67163;DHT22;54092;53.088;8.850;2024-02-23T03:12:42;5.60;99.90
67163;DHT22;54092;53.088;8.850;2024-02-23T03:15:08;5.50;99.90
67163;DHT22;54092;53.088;8.850;2024-02-23T03:17:35;5.60;99.90
67163;DHT22;54092;53.088;8.850;2024-02-23T03:20:01;5.60;99.90
67163;DHT22;54092;53.088;8.850;2024-02-23T03:22:27;5.70;99.90
67163;DHT22;54092;53.088;8.850;2024-02-23T03:24:52;5.80;99.90
67163;DHT22;54092;53.088;8.850;2024-02-23T03:27:19;5.90;99.90
67163;DHT22;54092;53.088;8.850;2024-02-23T03:29:44;5.90;99.90
67163;DHT22;54092;53.088;8.850;2024-02-23T03:32:10;5.80;99.90
67163;DHT22;54092;53.088;8.850;2024-02-23T03:34:35;5.80;99.90
67163;DHT22;54092;53.088;8.850;2024-02-23T03:37:02;5.80;99.90
67163;DHT22;54092;53.088;8.850;2024-02-23T03:39:28;5.70;99.90
67163;DHT22;54092;53.088;8.850;2024-02-23T03:41:54;5.70;99.90
67163;DHT22;54092;53.088;8.850;2024-02-23T03:44:19;5.70;99.90
67163;DHT22;54092;53.088;8.850;2024-02-23T03:46:45;5.70;99.90
67163;DHT22;54092;53.088;8.850;2024-02-23T03:49:10;5.50;99.90
67163;DHT22;54092;53.088;8.850;2024-02-23T03:51:37;5.40;99.90
67163;DHT22;54092;53.088;8.850;2024-02-23T03:54:05;5.40;99.90
67163;DHT22;54092;53.088;8.850;2024-02-23T03:56:40;5.30;99.90
67163;DHT22;54092;53.088;8.850;2024-02-23T03:59:06;5.30;99.90
67163;DHT22;54092;53.088;8.850;2024-02-23T04:01:35;5.30;99.90
67163;DHT22;54092;53.088;8.850;2024-02-23T04:04:00;5.40;99.90
67163;DHT22;54092;53.088;8.850;2024-02-23T04:06:26;5.50;99.90
67163;DHT22;54092;53.088;8.850;2024-02-23T04:08:51;5.70;99.90
67163;DHT22;54092;53.088;8.850;2024-02-23T04:11:17;5.60;99.90
67163;DHT22;54092;53.088;8.850;2024-02-23T04:13:42;5.70;99.90
67163;DHT22;54092;53.088;8.850;2024-02-23T04:16:08;5.70;99.90
67163;DHT22;54092;53.088;8.850;2024-02-23T04:18:33;5.70;99.90
67163;DHT22;54092;53.088;8.850;2024-02-23T04:20:59;5.80;99.90
67163;DHT22;54092;53.088;8.850;2024-02-23T04:23:24;5.90;99.90
67163;DHT22;54092;53.088;8.850;2024-02-23T04:25:50;5.90;99.90
67163;DHT22;54092;53.088;8.850;2024-02-23T04:28:16;5.90;99.90
67163;DHT22;54092;53.088;8.850;2024-02-23T04:30:42;5.90;99.90
67163;DHT22;54092;53.088;8.850;2024-02-23T04:33:08;5.90;99.90
67163;DHT22;54092;53.088;8.850;2024-02-23T04:35:33;5.90;99.90
67163;DHT22;54092;53.088;8.850;2024-02-23T04:37:59;5.80;99.90
67163;DHT22;54092;53.088;8.850;2024-02-23T04:40:24;5.80;99.90
67163;DHT22;54092;53.088;8.850;2024-02-23T04:42:50;5.80;99.90
67163;DHT22;54092;53.088;8.850;2024-02-23T04:45:15;5.80;99.90
67163;DHT22;54092;53.088;8.850;2024-02-23T04:47:41;5.70;99.90
67163;DHT22;54092;53.088;8.850;2024-02-23T04:50:07;5.90;99.90
67163;DHT22;54092;53.088;8.850;2024-02-23T04:52:32;5.70;99.90
67163;DHT22;54092;53.088;8.850;2024-02-23T04:54:58;5.70;99.90
67163;DHT22;54092;53.088;8.850;2024-02-23T04:57:23;5.70;99.90
67163;DHT22;54092;53.088;8.850;2024-02-23T04:59:49;5.60;99.90
67163;DHT22;54092;53.088;8.850;2024-02-23T05:02:14;5.60;99.90
67163;DHT22;54092;53.088;8.850;2024-02-23T05:04:41;5.60;99.90
67163;DHT22;54092;53.088;8.850;2024-02-23T05:07:07;5.50;99.90
67163;DHT22;54092;53.088;8.850;2024-02-23T05:09:32;5.50;99.90
67163;DHT22;54092;53.088;8.850;2024-02-23T05:11:57;5.50;99.90
67163;DHT22;54092;53.088;8.850;2024-02-23T05:14:23;5.50;99.90
67163;DHT22;54092;53.088;8.850;2024-02-23T05:16:49;5.40;99.90
67163;DHT22;54092;53.088;8.850;2024-02-23T05:19:14;5.40;99.90
67163;DHT22;54092;53.088;8.850;2024-02-23T05:21:39;5.40;99.90
67163;DHT22;54092;53.088;8.850;2024-02-23T05:24:05;5.40;99.90
67163;DHT22;54092;53.088;8.850;2024-02-23T05:26:31;5.40;99.90
67163;DHT22;54092;53.088;8.850;2024-02-23T05:28:57;5.40;99.90
67163;DHT22;54092;53.088;8.850;2024-02-23T05:31:52;5.30;99.90
67163;DHT22;54092;53.088;8.850;2024-02-23T05:34:17;5.30;99.90
67163;DHT22;54092;53.088;8.850;2024-02-23T05:36:47;5.30;99.90
67163;DHT22;54092;53.088;8.850;2024-02-23T05:39:13;5.30;99.90
67163;DHT22;54092;53.088;8.850;2024-02-23T05:41:41;5.30;99.90
67163;DHT22;54092;53.088;8.850;2024-02-23T05:44:07;5.30;99.90
67163;DHT22;54092;53.088;8.850;2024-02-23T05:46:36;5.30;99.90
67163;DHT22;54092;53.088;8.850;2024-02-23T05:49:03;5.30;99.90
67163;DHT22;54092;53.088;8.850;2024-02-23T05:51:30;5.30;99.90
67163;DHT22;54092;53.088;8.850;2024-02-23T05:53:56;5.30;99.90
67163;DHT22;54092;53.088;8.850;2024-02-23T05:56:21;5.30;99.90
67163;DHT22;54092;53.088;8.850;2024-02-23T05:58:50;5.30;99.90
67163;DHT22;54092;53.088;8.850;2024-02-23T06:01:17;5.30;99.90
67163;DHT22;54092;53.088;8.850;2024-02-23T06:03:43;5.30;99.90
67163;DHT22;54092;53.088;8.850;2024-02-23T06:06:09;5.30;99.90
67163;DHT22;54092;53.088;8.850;2024-02-23T06:08:36;5.30;99.90
67163;DHT22;54092;53.088;8.850;2024-02-23T06:11:02;5.40;99.90
67163;DHT22;54092;53.088;8.850;2024-02-23T06:13:29;5.50;99.90
67163;DHT22;54092;53.088;8.850;2024-02-23T06:15:54;5.50;99.90
67163;DHT22;54092;53.088;8.850;2024-02-23T06:18:20;5.60;99.90
67163;DHT22;54092;53.088;8.850;2024-02-23T06:20:45;5.70;99.90
67163;DHT22;54092;53.088;8.850;2024-02-23T06:23:11;5.60;99.90
67163;DHT22;54092;53.088;8.850;2024-02-23T06:25:36;5.60;99.90
67163;DHT22;54092;53.088;8.850;2024-02-23T06:28:02;5.60;99.90
67163;DHT22;54092;53.088;8.850;2024-02-23T06:30:28;5.60;99.90
67163;DHT22;54092;53.088;8.850;2024-02-23T06:32:53;5.60;99.90
67163;DHT22;54092;53.088;8.850;2024-02-23T06:35:19;5.60;99.90
67163;DHT22;54092;53.088;8.850;2024-02-23T06:37:44;5.70;99.90
67163;DHT22;54092;53.088;8.850;2024-02-23T06:40:10;5.70;99.90
67163;DHT22;54092;53.088;8.850;2024-02-23T06:42:35;5.80;99.90
67163;DHT22;54092;53.088;8.850;2024-02-23T06:45:01;5.90;99.90
67163;DHT22;54092;53.088;8.850;2024-02-23T06:47:26;6.00;99.90
67163;DHT22;54092;53.088;8.850;2024-02-23T06:49:52;6.10;99.90
67163;DHT22;54092;53.088;8.850;2024-02-23T06:52:17;6.10;99.90
67163;DHT22;54092;53.088;8.850;2024-02-23T06:54:43;6.20;99.90
67163;DHT22;54092;53.088;8.850;2024-02-23T06:57:09;6.20;99.90
67163;DHT22;54092;53.088;8.850;2024-02-23T06:59:34;6.20;99.90
67163;DHT22;54092;53.088;8.850;2024-02-23T07:02:01;6.10;99.90
67163;DHT22;54092;53.088;8.850;2024-02-23T07:04:27;6.10;99.90
67163;DHT22;54092;53.088;8.850;2024-02-23T07:06:54;6.10;99.90
67163;DHT22;54092;53.088;8.850;2024-02-23T07:09:19;6.10;99.90
67163;DHT22;54092;53.088;8.850;2024-02-23T07:11:45;6.10;99.90
67163;DHT22;54092;53.088;8.850;2024-02-23T07:14:11;6.10;99.90
67163;DHT22;54092;53.088;8.850;2024-02-23T07:16:38;6.10;99.90
67163;DHT22;54092;53.088;8.850;2024-02-23T07:19:07;6.10;99.90
67163;DHT22;54092;53.088;8.850;2024-02-23T07:21:33;6.10;99.90
67163;DHT22;54092;53.088;8.850;2024-02-23T07:23:59;6.10;99.90
67163;DHT22;54092;53.088;8.850;2024-02-23T07:26:25;6.20;99.90
67163;DHT22;54092;53.088;8.850;2024-02-23T07:28:53;6.30;99.90
67163;DHT22;54092;53.088;8.850;2024-02-23T07:31:19;6.30;99.90
67163;DHT22;54092;53.088;8.850;2024-02-23T07:33:44;6.30;99.90
67163;DHT22;54092;53.088;8.850;2024-02-23T07:36:16;6.30;99.90
67163;DHT22;54092;53.088;8.850;2024-02-23T07:38:42;6.20;99.90
67163;DHT22;54092;53.088;8.850;2024-02-23T07:41:09;6.30;99.90
67163;DHT22;54092;53.088;8.850;2024-02-23T07:43:34;6.40;99.90
67163;DHT22;54092;53.088;8.850;2024-02-23T07:46:01;6.30;99.90
67163;DHT22;54092;53.088;8.850;2024-02-23T07:48:27;6.30;99.90
67163;DHT22;54092;53.088;8.850;2024-02-23T07:50:53;6.40;99.90
67163;DHT22;54092;53.088;8.850;2024-02-23T07:53:18;6.40;99.90
67163;DHT22;54092;53.088;8.850;2024-02-23T07:55:44;6.50;99.90
67163;DHT22;54092;53.088;8.850;2024-02-23T07:58:09;6.50;99.90
67163;DHT22;54092;53.088;8.850;2024-02-23T08:00:35;6.60;99.90
67163;DHT22;54092;53.088;8.850;2024-02-23T08:03:03;6.60;99.90
67163;DHT22;54092;53.088;8.850;2024-02-23T08:05:29;6.70;99.90
67163;DHT22;54092;53.088;8.850;2024-02-23T08:07:55;6.70;99.90
67163;DHT22;54092;53.088;8.850;2024-02-23T08:10:21;6.70;99.90
67163;DHT22;54092;53.088;8.850;2024-02-23T08:12:47;6.80;99.90
67163;DHT22;54092;53.088;8.850;2024-02-23T08:15:12;6.80;99.90
67163;DHT22;54092;53.088;8.850;2024-02-23T08:17:38;6.80;99.90
67163;DHT22;54092;53.088;8.850;2024-02-23T08:20:04;6.90;99.90
67163;DHT22;54092;53.088;8.850;2024-02-23T08:22:30;7.00;99.90
67163;DHT22;54092;53.088;8.850;2024-02-23T08:24:56;7.00;99.90
67163;DHT22;54092;53.088;8.850;2024-02-23T08:27:22;7.10;99.90
67163;DHT22;54092;53.088;8.850;2024-02-23T08:29:47;7.20;99.90
67163;DHT22;54092;53.088;8.850;2024-02-23T08:32:13;7.20;99.90
67163;DHT22;54092;53.088;8.850;2024-02-23T08:34:38;7.40;99.90
67163;DHT22;54092;53.088;8.850;2024-02-23T08:37:04;7.50;99.90
67163;DHT22;54092;53.088;8.850;2024-02-23T08:39:29;7.60;99.90
67163;DHT22;54092;53.088;8.850;2024-02-23T08:41:55;7.80;99.90
67163;DHT22;54092;53.088;8.850;2024-02-23T08:44:21;8.20;99.90
67163;DHT22;54092;53.088;8.850;2024-02-23T08:46:47;8.40;99.90
67163;DHT22;54092;53.088;8.850;2024-02-23T08:49:13;8.70;99.90
67163;DHT22;54092;53.088;8.850;2024-02-23T08:51:39;9.10;99.90
67163;DHT22;54092;53.088;8.850;2024-02-23T08:54:05;9.40;99.90
67163;DHT22;54092;53.088;8.850;2024-02-23T08:56:34;9.60;99.90
67163;DHT22;54092;53.088;8.850;2024-02-23T08:59:01;9.80;98.70
67163;DHT22;54092;53.088;8.850;2024-02-23T09:01:27;9.80;98.10
67163;DHT22;54092;53.088;8.850;2024-02-23T09:03:53;9.70;97.70
67163;DHT22;54092;53.088;8.850;2024-02-23T09:06:18;9.80;98.10
67163;DHT22;54092;53.088;8.850;2024-02-23T09:08:45;10.20;96.90
67163;DHT22;54092;53.088;8.850;2024-02-23T09:11:10;10.10;96.20
67163;DHT22;54092;53.088;8.850;2024-02-23T09:13:38;9.90;96.50
67163;DHT22;54092;53.088;8.850;2024-02-23T09:16:04;9.80;97.40
67163;DHT22;54092;53.088;8.850;2024-02-23T09:18:29;9.50;97.50
67163;DHT22;54092;53.088;8.850;2024-02-23T09:20:55;9.20;98.60
67163;DHT22;54092;53.088;8.850;2024-02-23T09:23:21;8.90;99.90
67163;DHT22;54092;53.088;8.850;2024-02-23T09:25:46;8.70;99.90
67163;DHT22;54092;53.088;8.850;2024-02-23T09:28:12;8.50;99.90
67163;DHT22;54092;53.088;8.850;2024-02-23T09:30:37;8.40;99.90
67163;DHT22;54092;53.088;8.850;2024-02-23T09:33:03;8.20;99.90
67163;DHT22;54092;53.088;8.850;2024-02-23T09:35:29;8.10;99.90
67163;DHT22;54092;53.088;8.850;2024-02-23T09:37:54;8.00;99.90
67163;DHT22;54092;53.088;8.850;2024-02-23T09:40:20;7.90;99.90
67163;DHT22;54092;53.088;8.850;2024-02-23T09:42:55;7.80;99.90
67163;DHT22;54092;53.088;8.850;2024-02-23T09:45:21;7.80;99.90
67163;DHT22;54092;53.088;8.850;2024-02-23T09:47:47;7.90;99.90
67163;DHT22;54092;53.088;8.850;2024-02-23T09:50:13;7.70;99.90
67163;DHT22;54092;53.088;8.850;2024-02-23T09:52:40;7.70;99.90
67163;DHT22;54092;53.088;8.850;2024-02-23T09:55:06;7.70;99.90
67163;DHT22;54092;53.088;8.850;2024-02-23T09:57:32;7.80;99.90
67163;DHT22;54092;53.088;8.850;2024-02-23T09:59:58;7.80;99.90
67163;DHT22;54092;53.088;8.850;2024-02-23T10:02:23;7.80;99.90
67163;DHT22;54092;53.088;8.850;2024-02-23T10:04:50;7.80;99.90
67163;DHT22;54092;53.088;8.850;2024-02-23T10:07:16;7.90;99.90
67163;DHT22;54092;53.088;8.850;2024-02-23T10:09:42;7.90;99.90
67163;DHT22;54092;53.088;8.850;2024-02-23T10:12:08;7.90;99.90
67163;DHT22;54092;53.088;8.850;2024-02-23T10:14:33;7.90;99.90
67163;DHT22;54092;53.088;8.850;2024-02-23T10:16:59;8.00;99.90
67163;DHT22;54092;53.088;8.850;2024-02-23T10:19:25;8.10;99.90
67163;DHT22;54092;53.088;8.850;2024-02-23T10:21:54;8.10;99.90
67163;DHT22;54092;53.088;8.850;2024-02-23T10:24:20;8.20;99.90
67163;DHT22;54092;53.088;8.850;2024-02-23T10:26:46;8.20;99.90
67163;DHT22;54092;53.088;8.850;2024-02-23T10:29:12;8.20;99.90
67163;DHT22;54092;53.088;8.850;2024-02-23T10:31:37;8.20;99.90
67163;DHT22;54092;53.088;8.850;2024-02-23T10:34:08;8.20;99.90
67163;DHT22;54092;53.088;8.850;2024-02-23T10:36:40;8.20;99.90
67163;DHT22;54092;53.088;8.850;2024-02-23T10:39:06;8.20;99.90
67163;DHT22;54092;53.088;8.850;2024-02-23T10:41:35;8.30;99.90
67163;DHT22;54092;53.088;8.850;2024-02-23T10:44:01;8.30;99.90
67163;DHT22;54092;53.088;8.850;2024-02-23T10:46:30;8.30;99.90
67163;DHT22;54092;53.088;8.850;2024-02-23T10:48:58;8.30;99.30
67163;DHT22;54092;53.088;8.850;2024-02-23T10:51:25;8.20;99.70
67163;DHT22;54092;53.088;8.850;2024-02-23T10:53:52;8.30;99.70
67163;DHT22;54092;53.088;8.850;2024-02-23T10:56:18;8.50;99.90
67163;DHT22;54092;53.088;8.850;2024-02-23T10:58:43;8.30;99.70
67163;DHT22;54092;53.088;8.850;2024-02-23T11:01:09;8.30;99.20
67163;DHT22;54092;53.088;8.850;2024-02-23T11:03:37;8.30;99.70
67163;DHT22;54092;53.088;8.850;2024-02-23T11:06:06;8.30;99.60
67163;DHT22;54092;53.088;8.850;2024-02-23T11:08:33;8.30;99.00
67163;DHT22;54092;53.088;8.850;2024-02-23T11:11:07;8.30;98.80
67163;DHT22;54092;53.088;8.850;2024-02-23T11:13:37;8.40;99.90
67163;DHT22;54092;53.088;8.850;2024-02-23T11:16:07;8.40;99.20
67163;DHT22;54092;53.088;8.850;2024-02-23T11:18:38;8.40;99.20
67163;DHT22;54092;53.088;8.850;2024-02-23T11:21:05;8.40;98.50
67163;DHT22;54092;53.088;8.850;2024-02-23T11:23:41;8.40;98.20
67163;DHT22;54092;53.088;8.850;2024-02-23T11:26:10;8.40;97.80
67163;DHT22;54092;53.088;8.850;2024-02-23T11:28:48;8.50;98.00
67163;DHT22;54092;53.088;8.850;2024-02-23T11:31:28;8.60;97.30
67163;DHT22;54092;53.088;8.850;2024-02-23T11:33:55;8.70;97.40
67163;DHT22;54092;53.088;8.850;2024-02-23T11:36:34;8.70;97.30
67163;DHT22;54092;53.088;8.850;2024-02-23T11:39:00;9.00;96.80
67163;DHT22;54092;53.088;8.850;2024-02-23T11:41:27;9.00;96.10
67163;DHT22;54092;53.088;8.850;2024-02-23T11:43:54;9.10;96.50
67163;DHT22;54092;53.088;8.850;2024-02-23T11:46:26;9.20;95.60
67163;DHT22;54092;53.088;8.850;2024-02-23T11:48:51;9.40;95.60
67163;DHT22;54092;53.088;8.850;2024-02-23T11:51:21;9.90;94.90
67163;DHT22;54092;53.088;8.850;2024-02-23T11:53:47;9.80;93.50
67163;DHT22;54092;53.088;8.850;2024-02-23T11:56:13;9.60;93.80
67163;DHT22;54092;53.088;8.850;2024-02-23T11:58:42;9.60;93.90
67163;DHT22;54092;53.088;8.850;2024-02-23T12:01:08;9.40;94.20
67163;DHT22;54092;53.088;8.850;2024-02-23T12:03:34;9.20;94.00
67163;DHT22;54092;53.088;8.850;2024-02-23T12:06:00;9.10;94.40
67163;DHT22;54092;53.088;8.850;2024-02-23T12:08:27;9.00;95.20
67163;DHT22;54092;53.088;8.850;2024-02-23T12:10:54;9.00;95.50
67163;DHT22;54092;53.088;8.850;2024-02-23T12:13:21;9.00;95.20
67163;DHT22;54092;53.088;8.850;2024-02-23T12:15:47;9.00;95.30
67163;DHT22;54092;53.088;8.850;2024-02-23T12:18:13;9.00;94.60
67163;DHT22;54092;53.088;8.850;2024-02-23T12:20:40;9.00;94.60
67163;DHT22;54092;53.088;8.850;2024-02-23T12:23:05;9.00;95.00
67163;DHT22;54092;53.088;8.850;2024-02-23T12:25:33;9.10;94.80
67163;DHT22;54092;53.088;8.850;2024-02-23T12:27:59;9.00;94.60
67163;DHT22;54092;53.088;8.850;2024-02-23T12:30:26;9.00;94.80
67163;DHT22;54092;53.088;8.850;2024-02-23T12:33:03;9.00;95.10
67163;DHT22;54092;53.088;8.850;2024-02-23T12:35:29;9.00;94.80
67163;DHT22;54092;53.088;8.850;2024-02-23T12:37:54;9.00;94.80
67163;DHT22;54092;53.088;8.850;2024-02-23T12:40:20;8.90;94.70
67163;DHT22;54092;53.088;8.850;2024-02-23T12:42:45;8.80;95.10
67163;DHT22;54092;53.088;8.850;2024-02-23T12:45:14;8.80;95.40
67163;DHT22;54092;53.088;8.850;2024-02-23T12:47:39;8.80;95.20
67163;DHT22;54092;53.088;8.850;2024-02-23T12:50:05;8.70;95.30
67163;DHT22;54092;53.088;8.850;2024-02-23T12:52:33;8.80;95.20
67163;DHT22;54092;53.088;8.850;2024-02-23T12:54:59;8.70;95.40
67163;DHT22;54092;53.088;8.850;2024-02-23T12:57:24;8.70;95.10
67163;DHT22;54092;53.088;8.850;2024-02-23T12:59:50;8.70;95.30
67163;DHT22;54092;53.088;8.850;2024-02-23T13:02:15;8.70;95.30
67163;DHT22;54092;53.088;8.850;2024-02-23T13:04:41;8.70;95.40
67163;DHT22;54092;53.088;8.850;2024-02-23T13:07:08;8.80;95.40
67163;DHT22;54092;53.088;8.850;2024-02-23T13:09:34;8.90;95.30
67163;DHT22;54092;53.088;8.850;2024-02-23T13:11:59;9.10;94.60
67163;DHT22;54092;53.088;8.850;2024-02-23T13:14:25;9.10;94.40
67163;DHT22;54092;53.088;8.850;2024-02-23T13:16:50;9.30;94.60
67163;DHT22;54092;53.088;8.850;2024-02-23T13:19:16;9.60;93.80
67163;DHT22;54092;53.088;8.850;2024-02-23T13:21:41;10.40;92.60
67163;DHT22;54092;53.088;8.850;2024-02-23T13:24:07;11.30;89.20
67163;DHT22;54092;53.088;8.850;2024-02-23T13:26:32;11.10;88.20
67163;DHT22;54092;53.088;8.850;2024-02-23T13:28:58;10.90;89.40
67163;DHT22;54092;53.088;8.850;2024-02-23T13:31:23;10.50;89.00
67163;DHT22;54092;53.088;8.850;2024-02-23T13:33:49;10.60;89.30
67163;DHT22;54092;53.088;8.850;2024-02-23T13:36:14;10.80;88.50
67163;DHT22;54092;53.088;8.850;2024-02-23T13:38:40;10.90;89.20
67163;DHT22;54092;53.088;8.850;2024-02-23T13:41:07;11.60;84.70
67163;DHT22;54092;53.088;8.850;2024-02-23T13:43:32;11.00;85.70
67163;DHT22;54092;53.088;8.850;2024-02-23T13:45:59;10.80;86.60
67163;DHT22;54092;53.088;8.850;2024-02-23T13:48:24;10.50;88.80
67163;DHT22;54092;53.088;8.850;2024-02-23T13:50:50;10.30;89.60
67163;DHT22;54092;53.088;8.850;2024-02-23T13:53:15;10.60;88.20
67163;DHT22;54092;53.088;8.850;2024-02-23T13:55:41;10.90;87.40
67163;DHT22;54092;53.088;8.850;2024-02-23T13:58:09;10.90;87.50
67163;DHT22;54092;53.088;8.850;2024-02-23T14:00:35;10.70;88.70
67163;DHT22;54092;53.088;8.850;2024-02-23T14:03:00;10.40;89.20
67163;DHT22;54092;53.088;8.850;2024-02-23T14:05:26;10.30;90.00
67163;DHT22;54092;53.088;8.850;2024-02-23T14:07:51;10.10;90.30
67163;DHT22;54092;53.088;8.850;2024-02-23T14:10:19;9.90;91.20
67163;DHT22;54092;53.088;8.850;2024-02-23T14:12:44;9.80;91.20
67163;DHT22;54092;53.088;8.850;2024-02-23T14:15:10;9.70;91.80
67163;DHT22;54092;53.088;8.850;2024-02-23T14:17:36;9.60;92.10
67163;DHT22;54092;53.088;8.850;2024-02-23T14:20:02;9.50;93.20
67163;DHT22;54092;53.088;8.850;2024-02-23T14:22:29;9.30;94.80
67163;DHT22;54092;53.088;8.850;2024-02-23T14:24:54;9.10;94.60
67163;DHT22;54092;53.088;8.850;2024-02-23T14:27:20;9.00;95.20
67163;DHT22;54092;53.088;8.850;2024-02-23T14:29:46;9.00;96.00
67163;DHT22;54092;53.088;8.850;2024-02-23T14:32:16;9.10;96.60
67163;DHT22;54092;53.088;8.850;2024-02-23T14:34:42;9.10;97.60
67163;DHT22;54092;53.088;8.850;2024-02-23T14:37:07;9.20;97.30
67163;DHT22;54092;53.088;8.850;2024-02-23T14:39:33;9.20;97.20
67163;DHT22;54092;53.088;8.850;2024-02-23T14:42:02;9.20;97.20
67163;DHT22;54092;53.088;8.850;2024-02-23T14:44:28;9.20;97.60
67163;DHT22;54092;53.088;8.850;2024-02-23T14:46:54;9.20;97.20
67163;DHT22;54092;53.088;8.850;2024-02-23T14:49:20;9.20;97.00
67163;DHT22;54092;53.088;8.850;2024-02-23T14:51:46;9.30;96.80
67163;DHT22;54092;53.088;8.850;2024-02-23T14:54:14;9.30;96.00
67163;DHT22;54092;53.088;8.850;2024-02-23T14:56:39;9.30;95.70
67163;DHT22;54092;53.088;8.850;2024-02-23T14:59:06;9.40;95.70
67163;DHT22;54092;53.088;8.850;2024-02-23T15:01:38;9.40;95.80
67163;DHT22;54092;53.088;8.850;2024-02-23T15:04:04;9.30;95.70
67163;DHT22;54092;53.088;8.850;2024-02-23T15:06:30;9.50;95.30
67163;DHT22;54092;53.088;8.850;2024-02-23T15:08:56;9.50;94.60
67163;DHT22;54092;53.088;8.850;2024-02-23T15:11:22;9.50;94.70
67163;DHT22;54092;53.088;8.850;2024-02-23T15:13:48;9.50;94.90
67163;DHT22;54092;53.088;8.850;2024-02-23T15:16:13;9.50;94.80
67163;DHT22;54092;53.088;8.850;2024-02-23T15:18:39;9.50;95.20
67163;DHT22;54092;53.088;8.850;2024-02-23T15:21:05;9.50;96.00
67163;DHT22;54092;53.088;8.850;2024-02-23T15:23:30;9.30;99.90
67163;DHT22;54092;53.088;8.850;2024-02-23T15:25:56;8.70;99.90
67163;DHT22;54092;53.088;8.850;2024-02-23T15:28:21;8.30;99.90
67163;DHT22;54092;53.088;8.850;2024-02-23T15:30:50;7.90;99.90
67163;DHT22;54092;53.088;8.850;2024-02-23T15:33:15;7.70;99.90
67163;DHT22;54092;53.088;8.850;2024-02-23T15:35:41;7.60;99.90
67163;DHT22;54092;53.088;8.850;2024-02-23T15:38:06;7.60;99.90